Date,TemperatureHighF,TemperatureAvgF,TemperatureLowF,DewpointHighF,DewpointAvgF,DewpointLowF,HumidityHigh,HumidityAvg,HumidityLow,PressureMaxIn,PressureMinIn,WindSpeedMaxMPH,WindSpeedAvgMPH,GustSpeedMaxMPH,PrecipitationSumIn
2013-1-28,61,50,40,47,42,37,97,78,46,29.57,29.49,7,1,9,0.00
2013-1-29,63,46,35,51,41,33,97,86,53,29.62,29.55,5,0,6,0.00
2013-1-30,67,46,33,51,40,32,97,83,44,29.67,29.53,4,0,6,0.00
2013-1-31,71,45,27,51,39,26,97,82,39,29.59,29.46,4,0,6,0.00
2013-2-1,74,46,29,54,40,28,97,83,33,29.53,29.43,7,0,7,0.00
2013-2-2,64,46,35,54,43,33,97,90,64,29.57,29.49,6,0,7,0.00
2013-2-3,61,44,32,52,41,32,97,89,63,29.52,29.43,6,0,8,0.00
2013-2-4,69,47,33,53,42,32,97,85,43,29.45,29.36,4,0,7,0.00
2013-2-5,60,45,34,50,42,33,97,89,63,29.42,29.34,7,0,9,0.00
2013-2-6,62,44,30,50,40,29,97,87,58,29.54,29.41,6,0,8,0.00
2013-2-7,58,41,28,52,38,26,97,90,55,29.47,29.29,5,0,8,0.06
2013-2-8,55,41,29,48,38,28,97,90,57,29.30,29.21,6,0,7,0.04
2013-2-9,59,39,24,45,33,21,97,84,48,29.45,29.27,6,0,8,0.00
2013-2-10,64,40,23,44,33,21,96,79,32,29.43,29.33,10,0,12,0.00
2013-2-11,65,42,25,47,31,24,97,74,22,29.53,29.35,9,1,11,0.00
2013-2-12,64,44,27,47,36,26,97,80,39,29.64,29.53,7,0,7,0.00
2013-2-13,66,44,27,48,37,26,97,82,41,29.61,29.50,6,0,7,0.00
2013-2-14,74,48,29,52,39,28,97,78,32,29.51,29.44,6,0,7,0.00
2013-2-15,79,50,29,50,39,28,97,75,21,29.53,29.47,6,0,9,0.00
2013-2-16,76,50,32,54,41,31,97,79,22,29.51,29.33,6,0,8,0.00
2013-2-17,62,45,29,52,41,28,97,88,64,29.34,29.27,5,0,7,0.00
2013-2-18,53,43,33,50,41,32,97,92,74,29.33,29.26,4,0,5,0.00
2013-2-19,49,41,30,48,40,29,97,96,94,29.27,29.05,7,0,9,0.33
2013-2-20,63,42,27,54,36,26,97,82,39,29.35,29.10,7,1,10,0.00
2013-2-21,62,45,31,49,37,29,97,79,34,29.46,29.33,8,1,11,0.00
2013-2-22,68,44,26,50,37,24,97,80,43,29.53,29.45,7,1,7,0.00
2013-2-23,63,48,33,48,40,32,97,80,35,29.53,29.44,9,1,12,0.00
2013-2-24,65,46,31,40,32,24,95,64,22,29.54,29.43,11,1,13,0.00
2013-2-25,67,44,26,48,37,24,96,79,41,29.55,29.45,7,0,8,0.00
2013-2-26,71,46,28,50,32,23,97,68,19,29.49,29.41,9,1,14,0.00
2013-2-27,73,47,26,48,36,24,96,73,22,29.64,29.48,6,0,9,0.00
2013-2-28,73,52,34,57,45,33,97,82,44,29.72,29.64,5,0,9,0.00
2013-3-1,79,55,36,59,47,35,97,80,38,29.71,29.52,5,0,7,0.00
2013-3-2,75,55,41,60,47,40,97,79,37,29.52,29.37,7,0,7,0.00
2013-3-3,65,53,42,58,50,41,97,92,72,29.40,29.33,8,0,10,0.00
2013-3-4,64,52,44,56,48,43,97,90,68,29.43,29.35,6,1,8,0.00
2013-3-5,55,49,45,49,46,44,97,91,75,29.36,29.21,9,1,15,0.52
2013-3-6,58,48,37,53,46,36,97,93,73,29.37,29.20,11,1,17,0.27
2013-3-7,60,46,36,54,43,35,97,89,51,29.29,29.13,6,0,12,0.25
2013-3-8,62,50,41,56,47,40,97,90,63,29.37,29.10,7,1,11,0.04
2013-3-9,69,53,38,53,44,35,97,79,31,29.59,29.37,9,1,12,0.00
2013-3-10,70,48,30,56,42,29,97,81,42,29.61,29.54,5,0,8,0.00
2013-3-11,77,51,31,55,41,29,97,75,28,29.54,29.40,7,0,9,0.00
2013-3-12,80,54,34,60,45,33,97,77,31,29.42,29.35,6,0,9,0.00
2013-3-13,84,58,38,62,47,37,97,75,25,29.42,29.37,6,0,7,0.00
2013-3-14,77,56,39,62,49,38,97,80,36,29.44,29.37,5,0,7,0.00
2013-3-15,79,55,36,60,46,35,97,76,35,29.40,29.33,4,0,6,0.00
2013-3-16,78,56,42,62,46,33,97,75,22,29.38,29.32,5,0,13,0.00
2013-3-17,72,53,35,54,44,33,97,75,35,29.41,29.33,6,1,7,0.00
2013-3-18,69,51,33,58,46,32,97,86,52,29.39,29.32,4,0,5,0.00
2013-3-19,76,55,39,56,46,38,97,78,33,29.44,29.33,6,0,8,0.10
2013-3-20,67,56,50,61,54,50,97,92,63,29.41,29.36,6,0,10,0.01
2013-3-21,69,54,39,53,45,38,97,77,35,29.41,29.29,13,1,14,0.00
2013-3-22,71,51,31,49,34,23,97,63,18,29.36,29.28,9,1,13,0.00
2013-3-23,73,50,30,50,36,24,97,69,17,29.39,29.32,8,1,11,0.00
2013-3-24,74,52,32,53,41,31,97,74,28,29.36,29.26,6,0,7,0.00
2013-3-25,69,51,36,53,43,35,97,78,38,29.30,29.23,6,0,7,0.00
2013-3-26,72,54,41,54,46,40,97,79,44,29.29,29.21,6,1,9,0.00
2013-3-27,68,55,44,60,52,43,98,89,57,29.31,29.23,7,1,9,0.00
2013-3-28,70,58,48,65,55,47,98,91,61,29.37,29.29,6,0,9,0.11
2013-3-29,76,58,45,61,51,44,98,82,45,29.37,29.32,7,1,9,0.00
2013-3-30,69,56,51,60,53,49,98,91,51,29.38,29.30,8,1,8,0.45
2013-3-31,66,57,52,62,55,50,98,91,58,29.38,29.31,9,1,13,0.06
2013-4-1,68,56,46,62,53,45,98,90,56,29.44,29.33,8,1,9,0.38
2013-4-2,74,56,42,60,50,41,98,84,46,29.45,29.37,6,1,8,0.00
2013-4-3,78,58,44,60,51,43,97,81,36,29.41,29.30,7,1,9,0.00
2013-4-4,61,54,49,61,53,48,98,97,96,29.41,29.31,6,0,6,0.37
2013-4-5,72,59,48,63,54,48,98,87,46,29.47,29.40,8,1,9,0.00
2013-4-6,73,55,44,67,52,43,98,90,52,29.49,29.42,6,0,7,0.00
2013-4-7,72,56,44,65,51,43,98,87,45,29.46,29.17,7,1,9,0.04
2013-4-8,69,54,42,51,43,31,97,72,28,29.29,29.10,17,1,20,0.03
2013-4-9,76,54,36,48,38,32,97,63,23,29.35,29.27,9,1,14,0.00
2013-4-10,90,67,44,57,48,38,97,57,21,29.45,29.32,10,1,11,0.00
2013-4-11,77,59,45,55,50,41,97,75,34,29.36,29.16,9,1,12,0.00
2013-4-12,76,54,36,55,47,35,97,79,38,29.21,29.14,6,1,8,0.00
2013-4-13,73,53,40,56,45,37,97,78,35,29.21,29.15,11,1,16,0.00
2013-4-14,75,53,35,54,43,33,97,74,27,29.21,29.15,10,1,15,0.00
2013-4-15,63,51,41,49,42,36,97,75,41,29.23,29.15,12,1,14,0.00
2013-4-16,70,51,32,53,36,29,97,66,24,29.40,29.23,10,1,11,0.00
2013-4-17,73,52,32,51,35,28,97,61,20,29.53,29.40,9,1,16,0.00
2013-4-18,80,56,32,48,37,29,97,61,18,29.54,29.47,11,1,14,0.00
2013-4-19,81,58,36,55,45,35,97,69,29,29.51,29.36,7,1,8,0.00
2013-4-20,86,62,41,60,45,35,98,65,19,29.38,29.27,9,1,11,0.00
2013-4-21,90,64,40,58,45,36,98,63,15,29.31,29.23,7,1,9,0.00
2013-4-22,78,57,42,59,49,41,98,79,36,29.27,29.17,7,1,9,0.00
2013-4-23,70,55,45,60,51,42,98,87,58,29.26,29.15,10,1,12,0.00
2013-4-24,64,53,44,60,50,41,98,92,76,29.25,29.12,7,1,8,0.00
2013-4-25,74,56,40,59,48,39,98,79,42,29.41,29.25,9,1,12,0.00
2013-4-26,77,56,38,60,50,38,98,82,45,29.50,29.40,6,1,8,0.00
2013-4-27,81,58,40,59,48,39,98,75,31,29.49,29.36,7,1,8,0.00
2013-4-28,82,59,39,60,49,38,98,76,36,29.36,29.19,7,1,8,0.00
2013-4-29,93,66,44,67,50,40,98,65,18,29.19,29.07,9,1,10,0.00
2013-4-30,87,63,44,62,47,37,97,65,20,29.13,29.07,8,1,11,0.00
2013-5-1,76,57,42,59,49,38,96,77,44,29.37,29.13,7,1,8,0.00
2013-5-2,92,65,41,62,47,38,98,62,18,29.43,29.36,7,1,9,0.00
2013-5-3,93,66,42,60,44,32,97,57,13,29.39,29.10,6,1,11,0.00
2013-5-4,77,57,43,61,50,38,96,80,34,29.10,28.96,10,1,16,0.00
2013-5-5,67,58,53,60,55,50,94,88,55,29.09,28.93,13,2,16,0.00
2013-5-6,70,59,52,61,54,44,93,84,59,29.25,29.09,14,1,14,0.00
2013-5-7,75,61,48,62,50,41,93,69,38,29.34,29.24,9,1,10,0.00
2013-5-8,76,58,43,62,48,37,93,73,36,29.42,29.32,8,1,9,0.00
2013-5-9,76,59,45,61,49,37,92,73,49,29.45,29.37,7,1,9,0.00
2013-5-10,81,60,45,62,49,36,91,69,43,29.47,29.39,7,1,9,0.00
2013-5-11,88,64,44,66,49,36,92,62,29,29.43,29.35,7,1,9,0.00
2013-5-12,90,66,44,66,50,36,93,62,26,29.42,29.31,6,0,9,0.00
2013-5-13,87,64,44,62,48,36,93,58,31,29.37,29.26,6,1,10,0.00
2013-5-14,75,60,48,62,51,37,92,73,54,29.33,29.24,7,1,9,0.00
2013-5-15,79,58,40,56,45,33,94,67,26,29.36,29.31,8,1,12,0.00
2013-5-16,78,62,51,64,51,42,91,70,38,29.33,29.27,6,1,10,0.01
2013-5-17,79,59,42,58,43,31,93,61,18,29.37,29.27,9,1,16,0.00
2013-5-18,81,60,40,59,47,33,91,67,24,29.42,29.36,7,1,12,0.00
2013-5-19,90,64,41,60,43,33,91,55,15,29.40,29.27,12,1,12,0.00
2013-5-20,95,67,40,59,40,31,91,48,12,29.29,29.23,8,1,11,0.00
2013-5-21,77,58,46,60,46,33,92,70,23,29.29,29.20,14,1,17,0.00
2013-5-22,74,54,37,48,38,24,97,63,19,29.27,29.22,10,1,14,0.00
2013-5-23,73,56,42,51,44,39,93,68,33,29.29,29.21,7,1,11,0.00
2013-5-24,79,54,33,54,41,29,94,66,19,29.29,29.25,7,1,11,0.00
2013-5-25,77,58,43,54,45,36,91,67,26,29.35,29.27,9,1,13,0.00
2013-5-26,81,62,51,62,51,40,88,68,32,29.42,29.35,7,1,13,0.00
2013-5-27,72,60,46,64,54,36,85,79,60,29.42,29.30,7,1,9,0.00
2013-5-28,82,65,52,66,52,40,88,66,34,29.31,29.21,7,1,10,0.00
2013-5-29,80,61,48,65,51,37,88,70,30,29.25,29.20,8,1,16,0.00
2013-5-30,85,60,39,56,42,31,91,58,15,29.28,29.21,8,1,11,0.00
2013-5-31,95,66,40,60,44,32,91,54,12,29.28,29.21,11,1,11,0.00
2013-6-1,93,67,46,62,49,35,88,58,23,29.23,29.08,7,1,9,0.00
2013-6-2,74,59,46,63,50,33,86,70,50,29.08,29.03,6,1,9,0.00
2013-6-3,70,57,49,62,48,36,84,71,56,29.16,29.04,7,1,11,0.00
2013-6-4,71,56,43,64,45,31,83,68,45,29.26,29.14,7,0,9,0.00
2013-6-5,74,57,43,63,46,29,85,66,37,29.28,29.23,6,1,10,0.00
2013-6-6,75,60,52,63,48,35,84,63,49,29.25,29.18,6,1,8,0.00
2013-6-7,84,64,51,66,48,31,87,59,43,29.19,29.06,6,1,8,0.00
2013-6-8,73,60,50,66,48,28,83,65,39,29.15,29.04,8,1,12,0.00
2013-6-9,64,59,55,56,42,24,76,56,28,29.20,29.13,6,1,9,0.02
2013-6-10,70,61,53,62,54,39,83,77,60,29.26,29.15,7,1,12,0.00
2013-6-11,80,64,51,66,51,31,86,65,45,29.27,29.19,7,1,9,0.00
2013-6-12,85,62,43,64,45,29,91,57,20,29.30,29.19,7,1,11,0.00
2013-6-13,88,62,39,56,44,29,91,58,25,29.37,29.28,7,1,9,0.00
2013-6-14,92,66,42,60,44,31,87,51,18,29.28,29.13,6,1,9,0.00
2013-6-15,73,58,46,62,45,29,83,63,41,29.29,29.13,7,1,9,0.00
2013-6-16,91,65,51,62,48,35,88,57,21,29.37,29.29,12,1,12,0.00
2013-6-17,86,64,44,62,48,29,88,59,29,29.37,29.32,7,1,12,0.00
2013-6-18,77,61,48,60,45,28,89,58,31,29.33,29.29,9,1,16,0.00
2013-6-19,82,63,48,58,47,33,89,61,25,29.32,29.28,9,1,12,0.00
2013-6-20,86,62,41,58,44,29,91,57,16,29.29,29.23,11,1,15,0.00
2013-6-21,88,63,42,58,45,31,89,56,17,29.27,29.21,7,1,12,0.00
2013-6-22,89,65,42,60,46,29,88,52,21,29.22,29.16,7,1,9,0.00
2013-6-23,70,62,54,63,50,33,80,65,44,29.19,29.11,5,1,7,0.00
2013-6-24,64,60,59,49,35,26,60,39,26,29.21,29.09,5,0,6,0.01
2013-6-25,71,62,57,54,26,8,56,27,11,29.30,29.21,3,0,4,0.06
2013-6-26,91,73,61,74,47,-13,84,46,5,29.33,29.25,6,1,9,0.00
2013-6-27,98,75,54,72,49,11,87,44,12,29.35,29.29,6,1,8,0.00
2013-6-28,100,77,54,67,49,21,88,41,21,29.31,29.21,7,0,8,0.00
2013-6-29,97,75,54,66,52,31,88,49,23,29.22,29.11,9,1,12,0.00
2013-6-30,95,72,52,68,50,26,88,48,27,29.15,29.07,8,1,9,0.00
2013-7-1,89,70,52,68,50,24,88,51,26,29.19,29.08,7,1,8,0.00
2013-7-2,88,71,56,69,54,35,87,57,35,29.25,29.13,7,1,9,0.00
2013-7-3,88,69,55,70,52,29,88,57,32,29.22,29.08,5,0,9,0.00
2013-7-4,83,68,57,70,54,35,86,62,42,29.10,29.04,7,1,9,0.00
2013-7-5,78,64,54,66,50,29,86,62,37,29.11,29.05,7,1,11,0.00
2013-7-6,74,60,54,64,47,36,80,63,47,29.12,29.07,6,1,9,0.00
2013-7-7,75,61,54,65,49,39,82,66,55,29.16,29.09,8,1,9,0.00
2013-7-8,80,63,50,64,47,35,87,58,30,29.26,29.16,7,1,9,0.00
2013-7-9,92,66,47,66,46,29,87,51,26,29.30,29.24,6,1,7,0.00
2013-7-10,80,64,55,66,48,31,86,57,39,29.28,29.21,9,1,9,0.00
2013-7-11,77,61,52,64,46,31,84,59,41,29.25,29.20,9,1,9,0.00
2013-7-12,81,63,52,64,47,32,88,57,41,29.23,29.19,6,1,11,0.00
2013-7-13,82,62,49,66,46,29,88,56,42,29.26,29.19,6,1,9,0.00
2013-7-14,81,62,51,66,45,28,87,54,40,29.28,29.20,6,1,9,0.00
2013-7-15,76,60,53,65,45,29,82,58,40,29.21,29.14,7,1,9,0.00
2013-7-16,78,62,52,64,47,32,86,59,42,29.30,29.16,7,1,9,0.00
2013-7-17,83,63,45,66,49,26,87,61,33,29.36,29.29,7,1,9,0.00
2013-7-18,83,62,44,66,45,24,88,55,31,29.34,29.24,7,1,9,0.00
2013-7-19,80,62,52,66,45,26,85,54,34,29.25,29.14,6,1,9,0.00
2013-7-20,74,60,53,65,43,28,77,54,35,29.16,29.09,8,1,9,0.00
2013-7-21,81,65,53,69,50,29,86,59,40,29.19,29.07,6,1,9,0.00
2013-7-22,79,66,57,69,53,36,81,64,43,29.26,29.17,6,1,8,0.00
2013-7-23,84,68,57,67,54,40,88,62,45,29.30,29.23,7,1,9,0.00
2013-7-24,84,65,52,69,49,29,86,57,35,29.27,29.21,7,1,9,0.00
2013-7-25,80,63,52,66,46,28,84,56,35,29.32,29.22,7,1,9,0.00
2013-7-26,79,63,54,67,46,29,82,55,37,29.39,29.31,8,1,9,0.00
2013-7-27,76,62,55,66,44,28,76,54,34,29.32,29.18,7,1,8,0.00
2013-7-28,72,60,54,63,42,24,75,52,31,29.19,29.14,9,1,9,0.00
2013-7-29,73,60,54,64,47,36,77,63,50,29.31,29.16,7,1,9,0.00
2013-7-30,76,62,55,65,51,39,86,66,54,29.39,29.31,7,1,9,0.00
2013-7-31,79,63,50,65,49,32,86,61,49,29.38,29.31,7,1,9,0.00
2013-8-1,86,62,41,64,46,21,89,57,22,29.37,29.25,6,1,8,0.00
2013-8-2,80,60,41,65,46,21,87,60,25,29.28,29.21,7,1,11,0.00
2013-8-3,74,59,54,64,39,23,76,49,28,29.28,29.22,7,1,8,0.00
2013-8-4,76,60,52,65,42,24,82,52,32,29.29,29.25,9,1,9,0.00
2013-8-5,80,62,51,67,43,23,88,51,31,29.30,29.23,8,1,8,0.00
2013-8-6,75,61,52,65,42,24,76,52,31,29.34,29.25,9,1,9,0.00
2013-8-7,78,64,52,67,49,31,85,59,40,29.39,29.31,8,1,9,0.00
2013-8-8,76,62,53,66,44,24,84,54,28,29.32,29.23,8,1,11,0.00
2013-8-9,78,64,55,67,49,29,82,60,35,29.28,29.20,7,1,9,0.00
2013-8-10,83,66,56,69,46,28,86,51,32,29.32,29.26,7,1,9,0.00
2013-8-11,82,64,54,68,44,23,88,50,28,29.30,29.23,7,1,7,0.00
2013-8-12,83,64,51,67,43,23,87,48,27,29.28,29.23,8,1,9,0.00
2013-8-13,87,64,45,67,42,16,87,46,26,29.26,29.21,6,1,9,0.00
2013-8-14,95,66,43,66,44,16,89,49,17,29.27,29.20,6,0,8,0.00
2013-8-15,94,71,50,70,46,16,87,43,18,29.24,29.20,7,1,8,0.00
2013-8-16,94,70,52,73,45,-23,88,44,12,29.27,29.21,6,1,9,0.00
2013-8-17,90,65,52,69,41,11,89,45,18,29.28,29.18,8,0,10,0.00
2013-8-18,86,65,50,71,41,0,89,44,9,29.19,29.09,6,1,11,0.00
2013-8-19,86,65,52,69,40,8,89,41,13,29.21,29.11,7,1,11,0.00
2013-8-20,77,62,56,68,35,4,86,42,10,29.21,29.14,11,1,11,0.00
2013-8-21,80,64,53,66,42,23,87,47,27,29.22,29.16,6,1,11,0.00
2013-8-22,82,63,47,66,41,4,88,47,11,29.25,29.17,6,1,9,0.00
2013-8-23,84,64,47,68,40,4,88,46,11,29.21,29.10,9,1,10,0.00
2013-8-24,90,65,45,69,44,-23,88,48,9,29.19,29.13,7,1,7,0.00
2013-8-25,83,67,53,70,40,-13,86,41,7,29.23,29.17,7,1,11,0.00
2013-8-26,88,69,56,70,48,18,89,51,19,29.27,29.18,7,1,7,0.00
2013-8-27,89,66,46,61,46,21,87,49,30,29.19,29.10,6,1,8,0.00
2013-8-28,90,67,47,69,41,-6,87,41,8,29.23,29.13,7,1,8,0.00
2013-8-29,92,71,56,72,42,4,87,41,12,29.33,29.23,6,1,9,0.00
2013-8-30,98,72,51,72,44,-23,88,40,10,29.31,29.21,7,1,8,0.00
2013-8-31,90,70,51,66,46,18,88,45,22,29.26,29.18,6,1,8,0.00
2013-9-1,92,72,57,66,50,26,88,48,30,29.23,29.16,7,1,10,0.00
2013-9-2,88,72,62,72,56,40,87,58,44,29.24,29.16,7,0,8,0.00
2013-9-3,90,69,52,65,45,21,88,44,25,29.28,29.21,6,1,9,0.00
2013-9-4,90,68,51,65,44,16,88,45,18,29.31,29.23,6,1,12,0.00
2013-9-5,88,68,55,65,46,21,87,46,23,29.31,29.24,8,1,10,0.00
2013-9-6,98,69,44,62,44,21,88,44,21,29.27,29.11,6,1,8,0.00
2013-9-7,89,66,49,65,43,23,87,45,29,29.18,29.11,9,1,9,0.00
2013-9-8,84,64,50,69,40,11,87,43,18,29.16,29.07,7,1,8,0.00
2013-9-9,84,64,50,70,39,8,88,42,13,29.09,29.03,9,1,10,0.00
2013-9-10,64,60,56,39,22,0,41,24,7,29.20,29.05,4,0,6,0.00
2013-9-11,75,63,52,64,42,21,70,46,29,29.29,29.20,6,1,9,0.00
2013-9-12,84,65,51,71,42,11,85,47,16,29.25,29.18,6,1,7,0.00
2013-9-13,85,63,47,70,41,-13,87,47,3,29.19,29.06,7,1,8,0.00
2013-9-14,84,63,45,69,42,-23,88,50,6,29.10,29.03,7,0,9,0.00
2013-9-15,88,64,44,69,42,0,88,47,8,29.15,29.06,7,0,7,0.00
2013-9-16,88,65,46,69,42,-23,88,45,5,29.17,29.09,6,1,11,0.00
2013-9-17,79,63,51,62,38,11,88,42,16,29.18,29.13,16,1,22,0.00
2013-9-18,86,63,42,63,38,11,90,42,23,29.18,29.10,7,1,10,0.00
2013-9-19,94,64,39,60,38,16,87,41,16,29.13,29.03,7,1,9,0.00
2013-9-20,80,61,42,68,42,18,88,51,23,29.15,29.05,7,1,10,0.00
2013-9-21,66,60,52,39,8,-23,38,14,1,29.18,29.11,4,0,6,0.40
2013-9-22,78,60,45,66,40,-13,88,51,6,29.27,29.18,6,0,8,0.01
2013-9-23,87,65,46,67,35,-23,89,37,6,29.27,29.20,6,1,10,0.00
2013-9-24,82,63,50,66,36,-23,89,41,7,29.27,29.20,9,1,12,0.00
2013-9-25,73,60,47,59,37,-6,90,46,13,29.21,29.10,11,1,14,0.00
2013-9-26,80,57,38,57,31,-13,91,41,8,29.25,29.09,9,1,12,0.00
2013-9-27,83,57,35,58,31,8,91,40,16,29.36,29.25,10,1,14,0.00
2013-9-28,87,60,37,53,35,14,90,44,19,29.35,29.27,7,1,7,0.00
2013-9-29,85,63,43,64,39,8,87,43,20,29.37,29.31,9,0,9,0.00
2013-9-30,83,64,48,70,38,-40,88,43,1,29.35,29.24,7,1,9,0.00
2013-10-1,76,60,46,59,39,4,89,48,11,29.29,29.20,7,0,8,0.00
2013-10-2,81,57,40,61,37,0,91,48,12,29.27,29.19,8,0,9,0.00
2013-10-3,77,55,36,55,30,14,91,41,20,29.31,29.20,10,1,14,0.00
2013-10-4,84,61,41,45,35,31,91,44,16,29.35,29.20,11,1,15,0.00
2013-10-5,91,60,35,50,33,18,90,45,10,29.45,29.35,7,0,9,0.00
2013-10-6,90,59,36,48,32,21,90,45,10,29.38,29.27,6,0,9,0.00
2013-10-7,85,59,38,59,38,24,87,50,20,29.27,29.17,6,0,9,0.00
2013-10-8,71,53,38,60,37,18,86,57,28,29.18,29.00,6,0,8,0.00
2013-10-9,69,54,42,58,37,16,84,54,27,29.03,28.89,7,0,8,0.00
2013-10-10,63,49,37,52,30,16,68,48,29,29.28,29.03,7,0,9,0.00
2013-10-11,73,54,42,61,32,14,89,44,22,29.34,29.25,6,0,7,0.00
2013-10-12,73,52,33,59,38,18,88,61,40,29.26,29.19,6,0,8,0.00
2013-10-13,73,53,38,61,37,21,88,56,31,29.32,29.19,6,0,9,0.00
2013-10-14,84,56,33,57,35,18,90,50,22,29.35,29.26,6,0,7,0.00
2013-10-15,86,56,33,54,33,16,90,47,16,29.28,29.21,8,0,11,0.00
2013-10-16,85,56,34,50,32,18,90,46,15,29.35,29.25,9,0,9,0.00
2013-10-17,87,57,33,50,34,18,90,48,17,29.32,29.24,9,0,12,0.00
2013-10-18,86,57,33,52,34,21,87,48,16,29.30,29.25,6,0,7,0.00
2013-10-19,86,58,34,53,34,21,75,44,17,29.31,29.27,4,0,6,0.00
2013-10-27,56,55,53,42,40,32,63,57,44,29.10,29.00,7,1,9,0.00
2013-10-28,66,55,50,54,38,14,89,54,22,29.13,28.95,10,0,14,0.01
2013-10-29,66,51,39,56,32,18,80,49,24,29.30,29.13,6,0,8,0.01
2013-10-30,71,48,31,59,35,21,89,60,43,29.39,29.30,6,0,8,0.00
2013-10-31,75,51,32,59,35,18,89,55,36,29.41,29.32,6,0,7,0.00
2013-11-1,81,52,32,57,33,21,90,51,21,29.37,29.28,4,0,8,0.00
2013-11-2,76,52,32,58,35,18,91,54,31,29.28,29.19,6,0,8,0.00
2013-11-3,69,50,33,50,29,18,91,49,20,29.28,29.16,8,0,11,0.00
2013-11-4,71,47,28,48,28,14,91,52,22,29.28,29.15,8,1,10,0.00
2013-11-5,76,52,35,49,32,24,90,53,19,29.47,29.28,9,1,12,0.00
2013-11-6,81,53,32,50,34,18,88,53,16,29.48,29.41,5,0,7,0.00
2013-11-7,79,52,36,51,36,23,89,58,18,29.41,29.33,4,0,5,0.00
2013-11-8,80,53,33,57,36,21,88,55,25,29.33,29.21,6,0,7,0.00
2013-11-9,72,50,34,57,32,21,87,51,28,29.31,29.22,10,0,10,0.00
2013-11-10,70,52,40,59,35,18,85,53,27,29.38,29.29,8,0,8,0.00
2013-11-11,74,55,43,59,36,18,87,49,31,29.41,29.33,4,0,4,0.00
2013-11-12,81,58,42,58,39,24,88,50,28,29.50,29.40,5,0,7,0.00
2013-11-13,83,55,36,59,37,23,89,52,23,29.49,29.35,7,0,8,0.00
2013-11-14,71,51,35,60,36,23,73,57,38,29.36,29.15,6,0,8,0.00
2013-11-15,67,51,36,57,39,21,88,62,37,29.15,29.00,7,0,9,0.00
2013-11-16,66,47,30,55,33,21,90,58,39,29.19,29.03,7,0,9,0.00
2013-11-17,65,48,36,56,32,16,72,54,26,29.35,29.19,5,0,6,0.00
2013-11-18,63,47,36,53,30,14,72,53,26,29.39,29.34,5,0,6,0.00
2013-11-19,63,52,41,49,26,14,61,37,22,29.37,29.23,4,0,6,0.17
2013-11-20,59,54,45,44,26,-6,62,37,6,29.23,29.11,3,0,5,0.13
2013-11-21,62,50,44,56,36,0,85,62,21,29.19,29.12,6,0,9,0.04
2013-11-22,68,48,33,50,27,4,89,46,20,29.26,29.17,9,0,9,0.01
2013-11-23,66,45,30,57,22,-6,88,42,10,29.36,29.21,6,0,8,0.00
2013-11-24,69,45,28,56,22,-13,86,42,6,29.49,29.36,4,0,7,0.03
2013-11-25,72,46,29,57,21,-13,87,39,11,29.55,29.48,5,0,6,0.02
2013-11-26,73,48,33,61,21,-13,88,37,10,29.49,29.27,4,0,4,0.00
2013-11-27,69,48,33,57,20,-6,88,35,12,29.27,29.11,6,0,8,0.00
2013-11-28,73,48,36,59,22,-6,88,36,15,29.33,29.10,4,0,6,0.00
2013-11-29,77,48,30,60,25,-6,89,41,9,29.47,29.33,5,0,6,0.01
2013-11-30,75,46,29,55,23,0,89,40,14,29.50,29.43,5,0,7,0.02
2013-12-1,76,49,31,58,25,0,90,40,17,29.56,29.46,7,0,7,0.00
2013-12-2,71,48,30,58,20,-13,87,38,6,29.48,29.23,4,0,6,0.00
2013-12-3,56,46,28,47,22,-40,86,44,1,29.23,29.09,11,0,12,0.00
2013-12-4,57,35,21,43,16,4,91,46,25,29.31,29.17,7,0,8,0.00
2013-12-5,55,32,16,39,15,0,91,48,28,29.41,29.31,6,0,8,0.00
2013-12-6,56,38,19,46,17,0,89,45,15,29.43,29.19,8,1,9,0.26
2013-12-7,52,40,25,45,18,-23,90,42,11,29.47,29.15,8,1,14,0.40
2013-12-8,52,32,23,43,15,-13,91,48,7,29.53,29.42,5,0,7,0.03
2013-12-9,58,33,19,41,14,0,89,45,24,29.63,29.51,7,0,9,0.00
2013-12-10,65,35,18,46,17,4,90,46,22,29.62,29.42,4,0,5,0.00
2013-12-11,68,39,23,45,20,4,90,45,22,29.43,29.39,6,0,7,0.00
2013-12-12,68,38,21,47,19,4,88,46,24,29.48,29.41,4,0,6,0.00
2013-12-13,63,38,22,52,22,8,89,52,31,29.56,29.46,5,0,6,0.00
2013-12-14,72,41,24,53,23,8,89,48,30,29.59,29.53,4,0,4,0.00
2013-12-15,77,43,24,54,23,11,88,46,22,29.57,29.44,2,0,6,0.00
2013-12-16,80,46,28,54,26,11,89,47,20,29.44,29.35,6,0,6,0.00
2013-12-17,74,47,30,60,28,11,88,47,27,29.39,29.25,2,0,3,0.00
2013-12-18,65,49,40,53,26,11,71,41,24,29.27,29.04,7,0,7,0.00
2013-12-19,60,46,30,47,28,8,89,50,20,29.16,28.97,13,1,14,0.00
2013-12-20,64,40,24,41,21,11,90,51,13,29.25,29.14,7,0,12,0.00
2013-12-21,69,42,26,51,28,11,88,56,43,29.31,29.21,6,0,6,0.00
2013-12-22,69,43,28,57,26,14,86,51,30,29.54,29.31,5,0,7,0.00
2013-12-23,72,44,27,58,27,11,89,52,30,29.61,29.53,4,0,6,0.00
2013-12-24,76,46,28,56,28,11,90,52,29,29.56,29.44,6,0,7,0.00
2013-12-25,78,44,25,53,26,11,89,50,21,29.49,29.43,3,0,6,0.00
2013-12-26,81,44,25,53,27,11,89,52,26,29.47,29.39,2,0,2,0.00
2013-12-27,71,42,24,59,27,11,88,55,35,29.44,29.33,2,0,2,0.00
2013-12-28,70,43,25,52,26,14,90,54,23,29.35,29.27,6,0,9,0.00
2013-12-29,76,43,25,48,24,11,89,49,17,29.41,29.31,5,0,6,0.00
2013-12-30,71,42,24,46,24,11,89,52,21,29.49,29.41,7,0,7,0.00
2013-12-31,70,41,24,47,24,11,89,50,25,29.49,29.38,5,0,6,0.00
2014-1-1,75,44,25,52,28,14,89,55,25,29.43,29.35,2,0,2,0.00
2014-1-2,79,46,28,50,29,14,88,51,24,29.38,29.29,5,0,5,0.00